createdAt,value
2018-01-30T00:00:11.757Z,99091.05
2018-01-30T00:02:40.007Z,99091.59
2018-01-30T00:05:09.025Z,99080.11
2018-01-30T00:07:37.268Z,99066.30
2018-01-30T00:10:06.282Z,99066.88
2018-01-30T00:12:34.544Z,99081.20
2018-01-30T00:15:03.551Z,99053.75
2018-01-30T00:17:31.806Z,99060.67
2018-01-30T00:20:00.817Z,99062.78
2018-01-30T00:22:29.068Z,99068.45
2018-01-30T00:24:58.083Z,99068.56
2018-01-30T00:27:26.329Z,99073.12
2018-01-30T00:29:54.577Z,99071.02
2018-01-30T00:32:22.831Z,99067.74
2018-01-30T00:34:51.100Z,99077.81
2018-01-30T00:37:19.383Z,99071.24
2018-01-30T00:39:47.620Z,99071.60
2018-01-30T00:42:16.639Z,99085.81
2018-01-30T00:44:44.895Z,99094.89
2018-01-30T00:47:13.932Z,99098.70
2018-01-30T00:49:42.206Z,99102.28
2018-01-30T00:52:10.513Z,99109.19
2018-01-30T00:54:38.809Z,99108.78
2018-01-30T00:57:07.114Z,99116.61
2018-01-30T00:59:35.393Z,99119.02
2018-01-30T01:02:03.671Z,99122.52
2018-01-30T01:04:31.932Z,99120.91
2018-01-30T01:07:00.199Z,99133.73
2018-01-30T01:09:29.358Z,99128.12
2018-01-30T01:11:57.685Z,99138.70
2018-01-30T01:14:26.107Z,99142.68
2018-01-30T01:16:54.439Z,99144.44
2018-01-30T01:19:22.810Z,99153.42
2018-01-30T01:21:51.900Z,99156.83
2018-01-30T01:24:21.001Z,99157.80
2018-01-30T01:26:49.312Z,99145.26
2018-01-30T01:29:17.624Z,99135.09
2018-01-30T01:31:45.942Z,99140.22
2018-01-30T01:34:14.258Z,99137.78
2018-01-30T01:36:42.558Z,99145.93
2018-01-30T01:39:10.847Z,99146.43
2018-01-30T01:41:39.157Z,99156.75
2018-01-30T01:44:07.433Z,99167.41
2018-01-30T01:46:35.713Z,99170.37
2018-01-30T01:49:04.009Z,99172.12
2018-01-30T01:51:32.312Z,99167.67
2018-01-30T01:54:00.651Z,99169.44
2018-01-30T01:56:28.962Z,99167.12
2018-01-30T01:58:57.274Z,99171.47
2018-01-30T02:01:25.598Z,99175.24
2018-01-30T02:03:53.921Z,99176.59
2018-01-30T02:06:23.004Z,99181.36
2018-01-30T02:08:52.086Z,99187.06
2018-01-30T02:11:20.430Z,99197.35
2018-01-30T02:13:48.727Z,99210.38
2018-01-30T02:16:17.042Z,99218.33
2018-01-30T02:18:45.355Z,99231.55
2018-01-30T02:21:13.650Z,99231.17
2018-01-30T02:23:42.727Z,99228.22
2018-01-30T02:26:11.043Z,99226.27
2018-01-30T02:28:39.355Z,99229.08
2018-01-30T02:31:07.656Z,99227.95
2018-01-30T02:33:36.003Z,99224.30
2018-01-30T02:36:04.309Z,99222.31
2018-01-30T02:38:32.645Z,99230.28
2018-01-30T02:41:01.710Z,99234.06
2018-01-30T02:43:30.025Z,99226.17
2018-01-30T02:45:59.121Z,99231.77
2018-01-30T02:48:28.199Z,99236.81
2018-01-30T02:50:56.507Z,99238.23
2018-01-30T02:53:24.830Z,99240.75
2018-01-30T02:55:53.173Z,99229.80
2018-01-30T02:58:22.210Z,99228.03
2018-01-30T03:00:50.509Z,99227.84
2018-01-30T03:03:19.617Z,99225.59
2018-01-30T03:05:47.915Z,99227.17
2018-01-30T03:08:16.228Z,99229.16
2018-01-30T03:10:44.572Z,99239.23
2018-01-30T03:13:12.895Z,99249.81
2018-01-30T03:15:41.216Z,99247.09
2018-01-30T03:18:09.531Z,99253.97
2018-01-30T03:20:37.879Z,99259.73
2018-01-30T03:23:06.192Z,99266.14
2018-01-30T03:25:34.501Z,99277.34
2018-01-30T03:28:03.561Z,99270.47
2018-01-30T03:30:31.890Z,99278.97
2018-01-30T03:33:00.194Z,99283.45
2018-01-30T03:35:28.526Z,99281.88
2018-01-30T03:37:57.620Z,99282.89
2018-01-30T03:40:25.915Z,99277.20
2018-01-30T03:42:54.193Z,99275.88
2018-01-30T03:45:22.489Z,99271.66
2018-01-30T03:47:50.846Z,99280.63
2018-01-30T03:50:19.142Z,99282.30
2018-01-30T03:52:47.459Z,99285.10
2018-01-30T03:55:15.750Z,99289.14
2018-01-30T03:57:44.853Z,99289.07
2018-01-30T04:00:13.944Z,99298.15
2018-01-30T04:02:42.274Z,99297.38
2018-01-30T04:05:10.577Z,99297.45
2018-01-30T04:07:38.978Z,99295.96
2018-01-30T04:10:08.108Z,99305.43
2018-01-30T04:12:36.406Z,99305.84
2018-01-30T04:15:04.779Z,99310.02
2018-01-30T04:17:33.110Z,99313.03
2018-01-30T04:20:01.422Z,99316.38
2018-01-30T04:22:29.726Z,99322.17
2018-01-30T04:24:58.051Z,99326.28
2018-01-30T04:27:26.360Z,99319.38
2018-01-30T04:29:54.683Z,99305.80
2018-01-30T04:32:23.001Z,99313.50
2018-01-30T04:34:51.318Z,99301.00
2018-01-30T04:37:19.662Z,99311.27
2018-01-30T04:39:48.735Z,99313.61
2018-01-30T04:42:17.049Z,99317.84
2018-01-30T04:44:45.352Z,99310.99
2018-01-30T04:47:14.413Z,99319.78
2018-01-30T04:49:42.716Z,99323.80
2018-01-30T04:52:11.003Z,99321.20
2018-01-30T04:54:39.338Z,99318.41
2018-01-30T04:57:08.437Z,99311.00
2018-01-30T04:59:36.782Z,99318.28
2018-01-30T05:02:05.131Z,99313.29
2018-01-30T05:04:34.225Z,99317.42
2018-01-30T05:07:03.381Z,99321.23
2018-01-30T05:09:31.705Z,99328.95
2018-01-30T05:12:00.799Z,99327.26
2018-01-30T05:14:29.895Z,99326.03
2018-01-30T05:16:58.995Z,99326.41
2018-01-30T05:19:27.327Z,99328.45
2018-01-30T05:21:55.646Z,99328.23
2018-01-30T05:24:23.935Z,99326.55
2018-01-30T05:26:52.252Z,99323.27
2018-01-30T05:29:20.584Z,99329.17
2018-01-30T05:31:49.700Z,99324.80
2018-01-30T05:34:18.009Z,99335.48
2018-01-30T05:36:46.332Z,99333.62
2018-01-30T05:39:14.638Z,99343.53
2018-01-30T05:41:42.922Z,99350.16
2018-01-30T05:44:12.001Z,99347.18
2018-01-30T05:46:40.292Z,99338.73
2018-01-30T05:49:08.614Z,99339.41
2018-01-30T05:51:37.689Z,99347.70
2018-01-30T05:54:06.008Z,99341.83
2018-01-30T05:56:34.310Z,99339.81
2018-01-30T05:59:02.651Z,99345.78
2018-01-30T06:01:31.753Z,99342.88
2018-01-30T06:04:00.824Z,99361.37
2018-01-30T06:06:29.909Z,99358.76
2018-01-30T06:08:58.239Z,99364.90
2018-01-30T06:11:26.601Z,99380.41
2018-01-30T06:13:54.907Z,99375.63
2018-01-30T06:16:23.219Z,99376.42
2018-01-30T06:18:51.559Z,99369.05
2018-01-30T06:21:19.853Z,99369.08
2018-01-30T06:23:48.178Z,99373.74
2018-01-30T06:26:16.491Z,99374.09
2018-01-30T06:28:44.776Z,99381.59
2018-01-30T06:31:13.131Z,99382.73
2018-01-30T06:33:41.472Z,99380.20
2018-01-30T06:36:10.556Z,99382.93
2018-01-30T06:38:38.887Z,99387.96
2018-01-30T06:41:07.164Z,99389.94
2018-01-30T06:43:35.482Z,99390.22
2018-01-30T06:46:03.786Z,99392.40
2018-01-30T06:48:32.065Z,99388.51
2018-01-30T06:51:00.351Z,99393.97
2018-01-30T06:53:28.634Z,99388.63
2018-01-30T06:55:56.878Z,99390.00
2018-01-30T06:58:26.026Z,99390.92
2018-01-30T07:00:54.398Z,99392.67
2018-01-30T07:03:22.745Z,99390.06
2018-01-30T07:05:51.083Z,99403.98
2018-01-30T07:08:19.408Z,99395.06
2018-01-30T07:10:47.751Z,99402.05
2018-01-30T07:13:16.060Z,99406.84
2018-01-30T07:15:44.511Z,99405.20
2018-01-30T07:18:12.813Z,99398.96
2018-01-30T07:20:41.171Z,99407.84
2018-01-30T07:23:10.318Z,99406.86
2018-01-30T07:25:38.813Z,99414.02
2018-01-30T07:28:07.130Z,99429.12
2018-01-30T07:30:35.461Z,99432.01
2018-01-30T07:33:03.904Z,99421.87
2018-01-30T07:35:32.210Z,99427.19
2018-01-30T07:38:00.530Z,99423.59
2018-01-30T07:40:28.825Z,99427.16
2018-01-30T07:42:57.882Z,99426.22
2018-01-30T07:45:26.182Z,99431.31
2018-01-30T07:47:55.269Z,99435.42
2018-01-30T07:50:23.574Z,99437.48
2018-01-30T07:52:51.986Z,99445.73
2018-01-30T07:55:20.316Z,99437.45
2018-01-30T07:57:49.409Z,99426.18
2018-01-30T08:00:18.492Z,99439.75
2018-01-30T08:02:46.850Z,99433.11
2018-01-30T08:05:15.193Z,99438.64
2018-01-30T08:07:43.524Z,99445.37
2018-01-30T08:10:11.838Z,99436.22
2018-01-30T08:12:40.206Z,99435.16
2018-01-30T08:15:09.282Z,99439.80
2018-01-30T08:17:38.358Z,99444.80
2018-01-30T08:20:06.711Z,99452.55
2018-01-30T08:22:35.036Z,99445.56
2018-01-30T08:25:03.382Z,99442.09
2018-01-30T08:27:31.722Z,99433.53
2018-01-30T08:30:00.069Z,99436.47
2018-01-30T08:32:29.163Z,99432.10
2018-01-30T08:34:58.354Z,99435.28
2018-01-30T08:37:26.688Z,99444.70
2018-01-30T08:39:55.797Z,99441.71
2018-01-30T08:42:24.118Z,99436.55
2018-01-30T08:44:52.432Z,99439.88
2018-01-30T08:47:20.761Z,99437.48
2018-01-30T08:49:49.089Z,99434.99
2018-01-30T08:52:17.445Z,99427.66
2018-01-30T08:54:45.894Z,99419.30
2018-01-30T08:57:15.009Z,99430.16
2018-01-30T08:59:43.327Z,99427.09
2018-01-30T09:02:11.716Z,99430.58
2018-01-30T09:04:40.038Z,99427.88
2018-01-30T09:07:09.129Z,99430.85
2018-01-30T09:09:38.205Z,99430.36
2018-01-30T09:12:06.557Z,99436.27
2018-01-30T09:14:34.929Z,99436.98
2018-01-30T09:17:03.293Z,99433.88
2018-01-30T09:19:31.658Z,99433.27
2018-01-30T09:21:59.978Z,99430.33
2018-01-30T09:24:28.284Z,99421.41
2018-01-30T09:26:56.624Z,99425.20
2018-01-30T09:29:24.964Z,99432.75
2018-01-30T09:31:53.295Z,99438.20
2018-01-30T09:34:21.633Z,99437.76
2018-01-30T09:36:49.967Z,99442.59
2018-01-30T09:39:18.344Z,99446.31
2018-01-30T09:41:46.671Z,99448.90
2018-01-30T09:44:15.057Z,99449.95
2018-01-30T09:46:43.396Z,99450.22
2018-01-30T09:49:11.793Z,99444.67
2018-01-30T09:51:40.105Z,99450.84
2018-01-30T09:54:08.460Z,99439.42
2018-01-30T09:56:36.794Z,99437.37
2018-01-30T09:59:05.970Z,99435.05
2018-01-30T10:01:34.321Z,99445.60
2018-01-30T10:04:02.665Z,99447.25
2018-01-30T10:06:31.005Z,99449.33
2018-01-30T10:08:59.327Z,99443.44
2018-01-30T10:11:27.691Z,99451.75
2018-01-30T10:13:56.795Z,99452.59
2018-01-30T10:16:25.121Z,99455.79
2018-01-30T10:18:53.495Z,99455.23
2018-01-30T10:21:21.812Z,99443.89
2018-01-30T10:23:50.173Z,99438.67
2018-01-30T10:26:18.516Z,99442.22
2018-01-30T10:28:46.819Z,99440.86
2018-01-30T10:31:15.174Z,99433.91
2018-01-30T10:33:44.257Z,99435.27
2018-01-30T10:36:12.608Z,99429.77
2018-01-30T10:38:40.940Z,99424.80
2018-01-30T10:41:09.288Z,99421.27
2018-01-30T10:43:37.634Z,99417.41
2018-01-30T10:46:05.960Z,99424.20
2018-01-30T10:48:34.349Z,99419.95
2018-01-30T10:51:02.720Z,99414.83
2018-01-30T10:53:31.047Z,99416.64
2018-01-30T10:55:59.413Z,99419.82
2018-01-30T10:58:27.706Z,99417.59
2018-01-30T11:00:56.132Z,99428.95
2018-01-30T11:03:24.430Z,99422.58
2018-01-30T11:05:53.589Z,99427.14
2018-01-30T11:08:21.915Z,99425.66
2018-01-30T11:10:50.271Z,99415.38
2018-01-30T11:13:18.611Z,99414.09
2018-01-30T11:15:47.016Z,99415.59
2018-01-30T11:18:15.326Z,99401.44
2018-01-30T11:20:44.442Z,99395.34
2018-01-30T11:23:12.827Z,99384.36
2018-01-30T11:25:41.249Z,99391.73
2018-01-30T11:28:09.708Z,99390.87
2018-01-30T11:30:38.058Z,99381.72
2018-01-30T11:33:06.479Z,99375.72
2018-01-30T11:35:34.799Z,99372.28
2018-01-30T11:38:03.881Z,99368.63
2018-01-30T11:40:32.169Z,99372.92
2018-01-30T11:43:00.531Z,99358.45
2018-01-30T11:45:29.652Z,99347.63
2018-01-30T11:47:57.988Z,99337.02
2018-01-30T11:50:27.083Z,99335.59
2018-01-30T11:52:55.436Z,99331.91
2018-01-30T11:55:23.768Z,99329.75
2018-01-30T11:57:52.110Z,99316.29
2018-01-30T12:00:20.499Z,99323.58
2018-01-30T12:02:48.845Z,99312.91
2018-01-30T12:05:17.167Z,99315.50
2018-01-30T12:07:45.530Z,99314.19
2018-01-30T12:10:13.865Z,99300.77
2018-01-30T12:12:42.175Z,99308.20
2018-01-30T12:15:11.270Z,99304.06
2018-01-30T12:17:41.140Z,99298.63
2018-01-30T12:20:09.475Z,99296.22
2018-01-30T12:22:37.805Z,99298.84
2018-01-30T12:25:06.142Z,99293.37
2018-01-30T12:27:34.487Z,99290.51
2018-01-30T12:30:02.826Z,99285.56
2018-01-30T12:32:31.137Z,99275.85
2018-01-30T12:34:59.478Z,99267.97
2018-01-30T12:37:27.798Z,99269.48
2018-01-30T12:39:56.131Z,99266.60
2018-01-30T12:42:24.430Z,99266.44
2018-01-30T12:44:52.742Z,99260.55
2018-01-30T12:47:21.160Z,99254.50
2018-01-30T12:49:49.485Z,99247.88
2018-01-30T12:52:17.802Z,99239.08
2018-01-30T12:54:46.215Z,99233.67
2018-01-30T12:57:14.752Z,99227.44
2018-01-30T12:59:43.095Z,99225.63
2018-01-30T13:02:11.470Z,99229.00
2018-01-30T13:04:39.806Z,99217.24
2018-01-30T13:07:08.147Z,99223.63
2018-01-30T13:09:36.568Z,99214.80
2018-01-30T13:12:05.068Z,99201.53
2018-01-30T13:14:33.413Z,99196.50
2018-01-30T13:17:01.796Z,99199.75
2018-01-30T13:19:30.146Z,99199.73
2018-01-30T13:21:58.533Z,99205.38
2018-01-30T13:24:26.922Z,99193.95
2018-01-30T13:26:55.281Z,99192.66
2018-01-30T13:29:23.636Z,99182.86
2018-01-30T13:31:53.192Z,99188.23
2018-01-30T13:34:21.528Z,99198.94
2018-01-30T13:36:49.920Z,99191.64
2018-01-30T13:39:18.263Z,99195.84
2018-01-30T13:41:46.579Z,99194.37
2018-01-30T13:44:14.923Z,99183.97
2018-01-30T13:46:43.245Z,99182.86
2018-01-30T13:49:12.395Z,99189.77
2018-01-30T13:51:40.734Z,99171.37
2018-01-30T13:54:09.093Z,99178.60
2018-01-30T13:56:38.202Z,99178.83
2018-01-30T13:59:06.566Z,99174.61
2018-01-30T14:01:35.699Z,99158.98
2018-01-30T14:04:04.055Z,99171.88
2018-01-30T14:06:32.386Z,99174.77
2018-01-30T14:09:00.706Z,99170.08
2018-01-30T14:11:29.026Z,99185.70
2018-01-30T14:13:57.362Z,99181.41
2018-01-30T14:16:25.687Z,99183.38
2018-01-30T14:18:54.774Z,99173.44
2018-01-30T14:21:23.124Z,99168.55
2018-01-30T14:23:51.471Z,99167.59
2018-01-30T14:26:20.604Z,99159.56
2018-01-30T14:28:48.921Z,99161.68
2018-01-30T14:31:17.288Z,99165.37
2018-01-30T14:33:45.595Z,99171.11
2018-01-30T14:36:13.903Z,99160.38
2018-01-30T14:38:42.236Z,99161.70
2018-01-30T14:41:10.559Z,99159.78
2018-01-30T14:43:38.881Z,99165.54
2018-01-30T14:46:07.240Z,99159.91
2018-01-30T14:48:35.667Z,99155.14
2018-01-30T14:51:04.773Z,99158.12
2018-01-30T14:53:34.842Z,99151.02
2018-01-30T14:56:03.166Z,99145.55
2018-01-30T14:58:32.271Z,99144.38
2018-01-30T15:01:01.365Z,99140.22
2018-01-30T15:03:29.741Z,99147.77
2018-01-30T15:05:58.826Z,99145.64
2018-01-30T15:08:28.090Z,99144.80
2018-01-30T15:10:56.389Z,99137.43
2018-01-30T15:13:24.701Z,99130.58
2018-01-30T15:15:53.012Z,99136.06
2018-01-30T15:18:21.356Z,99127.13
2018-01-30T15:20:49.765Z,99127.78
2018-01-30T15:23:18.075Z,99122.59
2018-01-30T15:25:47.190Z,99122.47
2018-01-30T15:28:16.271Z,99123.84
2018-01-30T15:30:45.392Z,99117.49
2018-01-30T15:33:13.728Z,99124.16
2018-01-30T15:35:42.037Z,99121.84
2018-01-30T15:38:10.365Z,99128.32
2018-01-30T15:40:38.680Z,99123.87
2018-01-30T15:43:07.815Z,99115.70
2018-01-30T15:45:36.175Z,99114.44
2018-01-30T15:48:04.535Z,99115.00
2018-01-30T15:50:33.633Z,99114.00
2018-01-30T15:53:02.737Z,99115.69
2018-01-30T15:55:31.066Z,99104.85
2018-01-30T15:57:59.407Z,99106.87
2018-01-30T16:00:27.734Z,99103.73
2018-01-30T16:02:56.043Z,99105.45
2018-01-30T16:05:24.379Z,99102.27
2018-01-30T16:07:52.701Z,99099.42
2018-01-30T16:10:21.037Z,99095.92
2018-01-30T16:12:49.380Z,99101.05
2018-01-30T16:15:18.513Z,99089.14
2018-01-30T16:17:46.838Z,99084.83
2018-01-30T16:20:15.153Z,99093.81
2018-01-30T16:22:43.469Z,99094.44
2018-01-30T16:25:12.572Z,99092.83
2018-01-30T16:27:41.650Z,99091.39
2018-01-30T16:30:10.766Z,99086.67
2018-01-30T16:32:39.110Z,99097.24
2018-01-30T16:35:07.441Z,99087.23
2018-01-30T16:37:35.791Z,99083.68
2018-01-30T16:40:04.898Z,99084.38
2018-01-30T16:42:33.194Z,99081.83
2018-01-30T16:45:01.504Z,99079.23
2018-01-30T16:47:29.860Z,99079.89
2018-01-30T16:49:58.223Z,99079.37
2018-01-30T16:52:26.610Z,99076.44
2018-01-30T16:54:55.008Z,99077.34
2018-01-30T16:57:23.329Z,99077.28
2018-01-30T16:59:52.415Z,99074.34
2018-01-30T17:02:21.520Z,99069.44
2018-01-30T17:04:50.586Z,99069.23
2018-01-30T17:07:18.911Z,99074.67
2018-01-30T17:09:47.278Z,99072.42
2018-01-30T17:12:15.642Z,99071.52
2018-01-30T17:14:44.742Z,99075.17
2018-01-30T17:17:13.837Z,99071.20
2018-01-30T17:19:42.909Z,99069.59
2018-01-30T17:22:11.251Z,99067.14
2018-01-30T17:24:39.630Z,99066.91
2018-01-30T17:27:07.962Z,99061.28
2018-01-30T17:29:37.070Z,99064.95
2018-01-30T17:32:05.403Z,99066.34
2018-01-30T17:34:33.745Z,99068.90
2018-01-30T17:37:02.089Z,99071.27
2018-01-30T17:39:30.397Z,99076.31
2018-01-30T17:41:58.691Z,99067.95
2018-01-30T17:44:27.005Z,99070.22
2018-01-30T17:46:56.155Z,99067.62
2018-01-30T17:49:24.488Z,99069.66
2018-01-30T17:51:53.596Z,99064.69
2018-01-30T17:54:21.920Z,99063.98
2018-01-30T17:56:50.248Z,99060.62
2018-01-30T17:59:19.393Z,99059.91
2018-01-30T18:01:47.730Z,99053.02
2018-01-30T18:04:16.147Z,99056.12
2018-01-30T18:06:44.512Z,99050.78
2018-01-30T18:09:12.905Z,99048.27
2018-01-30T18:11:41.237Z,99039.44
2018-01-30T18:14:10.468Z,99039.72
2018-01-30T18:16:38.900Z,99037.51
2018-01-30T18:19:08.088Z,99040.44
2018-01-30T18:21:36.555Z,99036.67
2018-01-30T18:24:04.991Z,99033.64
2018-01-30T18:26:33.421Z,99035.66
2018-01-30T18:29:01.854Z,99029.46
2018-01-30T18:31:30.239Z,99031.13
2018-01-30T18:33:58.619Z,99035.66
2018-01-30T18:36:26.994Z,99034.08
2018-01-30T18:38:55.469Z,99036.59
2018-01-30T18:41:23.773Z,99039.72
2018-01-30T18:43:52.053Z,99029.89
2018-01-30T18:46:20.382Z,99024.49
2018-01-30T18:48:48.755Z,99026.46
2018-01-30T18:51:17.189Z,99023.48
2018-01-30T18:53:45.624Z,99025.51
2018-01-30T18:56:14.031Z,99030.18
2018-01-30T18:58:42.415Z,99026.33
2018-01-30T19:01:10.794Z,99025.67
2018-01-30T19:03:39.162Z,99022.97
2018-01-30T19:06:07.498Z,99022.50
2018-01-30T19:08:35.955Z,99022.16
2018-01-30T19:11:04.370Z,99013.69
2018-01-30T19:13:32.716Z,99017.66
2018-01-30T19:16:01.164Z,99008.20
2018-01-30T19:18:29.576Z,99008.98
2018-01-30T19:20:58.012Z,99006.28
2018-01-30T19:23:26.473Z,99007.12
2018-01-30T19:25:54.910Z,99002.19
2018-01-30T19:28:23.390Z,99000.11
2018-01-30T19:30:51.813Z,99003.98
2018-01-30T19:33:20.253Z,99005.76
2018-01-30T19:35:49.410Z,98995.95
2018-01-30T19:38:17.750Z,98991.34
2018-01-30T19:40:46.101Z,98991.25
2018-01-30T19:43:15.171Z,98995.91
2018-01-30T19:45:43.547Z,98995.63
2018-01-30T19:48:11.905Z,98993.94
2018-01-30T19:50:40.384Z,98993.10
2018-01-30T19:53:08.643Z,98983.17
2018-01-30T19:55:36.919Z,98979.58
2018-01-30T19:58:05.196Z,98985.45
2018-01-30T20:00:33.490Z,98979.24
2018-01-30T20:03:01.820Z,98973.64
2018-01-30T20:05:30.069Z,98965.66
2018-01-30T20:07:58.315Z,98958.69
2018-01-30T20:10:26.634Z,98955.88
2018-01-30T20:12:54.867Z,98950.19
2018-01-30T20:15:23.165Z,98945.97
2018-01-30T20:17:51.401Z,98942.69
2018-01-30T20:20:19.679Z,98941.06
2018-01-30T20:22:47.979Z,98943.34
2018-01-30T20:25:16.282Z,98940.64
2018-01-30T20:27:44.620Z,98928.41
2018-01-30T20:30:12.856Z,98931.25
2018-01-30T20:32:42.039Z,98932.47
2018-01-30T20:35:10.324Z,98922.84
2018-01-30T20:37:38.616Z,98923.39
2018-01-30T20:40:07.610Z,98909.55
2018-01-30T20:42:36.617Z,98912.06
2018-01-30T20:45:04.867Z,98905.89
2018-01-30T20:47:33.900Z,98903.45
2018-01-30T20:50:02.203Z,98896.87
2018-01-30T20:52:30.651Z,98903.57
2018-01-30T20:54:59.103Z,98899.24
2018-01-30T20:57:28.334Z,98893.81
2018-01-30T20:59:56.831Z,98887.75
2018-01-30T21:02:25.230Z,98886.94
2018-01-30T21:04:53.690Z,98883.31
2018-01-30T21:07:22.182Z,98878.44
2018-01-30T21:09:50.652Z,98872.03
2018-01-30T21:12:19.041Z,98871.59
2018-01-30T21:14:47.846Z,98871.39
2018-01-30T21:17:16.282Z,98868.15
2018-01-30T21:19:44.688Z,98869.41
2018-01-30T21:22:13.166Z,98857.92
2018-01-30T21:24:41.644Z,98863.06
2018-01-30T21:27:10.047Z,98863.09
2018-01-30T21:29:39.328Z,98857.30
2018-01-30T21:32:07.811Z,98859.53
2018-01-30T21:34:36.276Z,98856.13
2018-01-30T21:37:04.715Z,98854.99
2018-01-30T21:39:33.959Z,98849.98
2018-01-30T21:42:02.369Z,98852.92
2018-01-30T21:44:30.808Z,98854.56
2018-01-30T21:46:59.222Z,98859.63
2018-01-30T21:49:27.676Z,98863.27
2018-01-30T21:51:56.095Z,98869.16
2018-01-30T21:54:24.581Z,98853.02
2018-01-30T21:56:53.820Z,98856.70
2018-01-30T21:59:22.296Z,98847.09
2018-01-30T22:01:50.732Z,98843.02
2018-01-30T22:04:19.943Z,98837.16
2018-01-30T22:06:49.123Z,98831.04
2018-01-30T22:09:18.361Z,98836.84
2018-01-30T22:11:46.797Z,98830.55
2018-01-30T22:14:15.188Z,98833.89
2018-01-30T22:16:44.294Z,98828.73
2018-01-30T22:19:13.371Z,98821.48
2018-01-30T22:21:41.626Z,98824.39
2018-01-30T22:24:09.903Z,98812.66
2018-01-30T22:26:38.221Z,98818.45
2018-01-30T22:29:07.237Z,98815.95
2018-01-30T22:31:35.548Z,98815.27
2018-01-30T22:34:03.794Z,98818.25
2018-01-30T22:36:32.105Z,98818.00
2018-01-30T22:39:00.363Z,98809.06
2018-01-30T22:41:28.671Z,98810.09
2018-01-30T22:43:58.282Z,98812.02
2018-01-30T22:46:26.708Z,98813.69
